Time;durP1;ratioP1;P1;durP2;ratioP2;P2;SDS_P1;SDS_P2;PMS_P1;PMS_P2;Temp;Humidity;BMP_temperature;BMP_pressure;BME280_temperature;BME280_humidity;BME280_pressure;Samples;Min_cycle;Max_cycle;Signal;HPM_P1;HPM_P2
2021/10/10 00:01:07;;;;;;;47.13;36.47;;;7.10;99.90;;;;;;5005114;28;20937;-68
2021/10/10 00:03:34;;;;;;;40.73;36.40;;;7.10;99.90;;;;;;4997087;28;20952;-68
2021/10/10 00:06:01;;;;;;;45.33;37.20;;;7.00;99.90;;;;;;4998315;28;20458;-69
2021/10/10 00:08:28;;;;;;;46.03;35.10;;;6.90;99.90;;;;;;4993208;28;20459;-71
2021/10/10 00:10:57;;;;;;;38.27;34.03;;;6.80;99.90;;;;;;4997590;28;20465;-71
2021/10/10 00:13:25;;;;;;;39.47;35.77;;;6.70;99.90;;;;;;4996306;28;20487;-69
2021/10/10 00:15:52;;;;;;;40.23;35.57;;;6.60;99.90;;;;;;5008262;28;20488;-70
2021/10/10 00:18:19;;;;;;;42.30;37.60;;;6.50;99.90;;;;;;5000324;28;20470;-68
2021/10/10 00:20:46;;;;;;;47.17;37.97;;;6.50;99.90;;;;;;4996630;28;20979;-71
2021/10/10 00:23:14;;;;;;;48.07;37.50;;;6.50;99.90;;;;;;5000534;28;20982;-68
2021/10/10 00:25:40;;;;;;;42.53;35.17;;;6.50;99.90;;;;;;5002433;28;20495;-70
2021/10/10 00:28:07;;;;;;;37.20;33.07;;;6.40;99.90;;;;;;5000760;28;20475;-67
2021/10/10 00:30:36;;;;;;;47.33;35.63;;;6.30;99.90;;;;;;5000427;28;20466;-71
2021/10/10 00:33:03;;;;;;;42.30;33.47;;;6.20;99.90;;;;;;5004216;28;20494;-70
2021/10/10 00:35:33;;;;;;;37.87;33.90;;;6.10;99.90;;;;;;4994877;28;20466;-69
2021/10/10 00:38:01;;;;;;;39.57;35.47;;;6.00;99.90;;;;;;4995269;28;20458;-68
2021/10/10 00:40:28;;;;;;;38.40;34.23;;;5.90;99.90;;;;;;4999241;28;20939;-68
2021/10/10 00:42:54;;;;;;;41.67;34.67;;;5.90;99.90;;;;;;5000079;28;20571;-68
2021/10/10 00:45:21;;;;;;;36.17;32.37;;;5.90;99.90;;;;;;5001232;28;20472;-70
2021/10/10 00:47:49;;;;;;;42.07;35.23;;;5.90;99.90;;;;;;4999772;28;20462;-72
2021/10/10 00:50:17;;;;;;;35.70;32.30;;;5.90;99.90;;;;;;4999765;28;20465;-70
2021/10/10 00:52:45;;;;;;;39.40;34.97;;;5.80;99.90;;;;;;5000722;28;20482;-73
2021/10/10 00:55:13;;;;;;;39.70;33.97;;;5.70;99.90;;;;;;4998952;28;20465;-72
2021/10/10 00:57:46;;;;;;;51.63;32.67;;;5.70;99.90;;;;;;5003369;28;20918;-71
2021/10/10 01:00:14;;;;;;;37.00;33.10;;;5.70;99.90;;;;;;5008242;28;20461;-70
2021/10/10 01:02:43;;;;;;;38.40;33.60;;;5.60;99.90;;;;;;5004064;28;20470;-71
2021/10/10 01:05:13;;;;;;;42.40;33.27;;;5.60;99.90;;;;;;5005335;28;20544;-71
2021/10/10 01:07:40;;;;;;;37.30;32.47;;;5.50;99.90;;;;;;4998286;28;20472;-71
2021/10/10 01:10:11;;;;;;;43.47;35.17;;;5.50;99.90;;;;;;4996153;28;20461;-71
2021/10/10 01:12:40;;;;;;;48.53;35.03;;;5.50;99.90;;;;;;5001079;28;20461;-71
2021/10/10 01:15:09;;;;;;;37.80;34.17;;;5.50;99.90;;;;;;5005777;28;20548;-71
2021/10/10 01:17:35;;;;;;;36.40;32.67;;;5.50;99.90;;;;;;5005003;28;20466;-71
2021/10/10 01:20:04;;;;;;;40.40;33.07;;;5.50;99.90;;;;;;5002663;28;20462;-71
2021/10/10 01:22:32;;;;;;;37.13;33.33;;;5.40;99.90;;;;;;5000102;28;20468;-68
2021/10/10 01:24:59;;;;;;;38.33;34.07;;;5.30;99.90;;;;;;5005914;28;20461;-71
2021/10/10 01:27:26;;;;;;;36.07;32.27;;;5.20;99.90;;;;;;4997718;28;20493;-71
2021/10/10 01:29:53;;;;;;;38.53;32.60;;;5.20;99.90;;;;;;5000349;28;20472;-72
2021/10/10 01:32:20;;;;;;;44.83;33.57;;;5.10;99.90;;;;;;5010004;28;20849;-70
2021/10/10 01:34:48;;;;;;;37.43;33.17;;;5.10;99.90;;;;;;5000897;28;20485;-71
2021/10/10 01:37:16;;;;;;;34.90;31.27;;;5.00;99.90;;;;;;5002680;28;20560;-70
2021/10/10 01:39:45;;;;;;;38.67;33.03;;;5.00;99.90;;;;;;5003340;28;20467;-70
2021/10/10 01:42:11;;;;;;;47.57;33.30;;;5.00;99.90;;;;;;5001787;28;20464;-69
2021/10/10 01:44:38;;;;;;;37.13;33.07;;;4.90;99.90;;;;;;5002970;28;20453;-70
2021/10/10 01:47:05;;;;;;;47.47;33.50;;;4.90;99.90;;;;;;4997044;28;20473;-70
2021/10/10 01:49:36;;;;;;;35.73;32.10;;;5.00;99.90;;;;;;5004175;28;20490;-71
2021/10/10 01:52:03;;;;;;;46.77;32.00;;;5.00;99.90;;;;;;5001558;28;20490;-71
2021/10/10 01:54:30;;;;;;;38.07;31.27;;;5.00;99.90;;;;;;4999648;28;20496;-71
2021/10/10 01:57:00;;;;;;;41.90;33.87;;;4.90;99.90;;;;;;5006448;28;20488;-71
2021/10/10 01:59:27;;;;;;;39.20;33.10;;;4.90;99.90;;;;;;5003851;28;20466;-71
2021/10/10 02:01:55;;;;;;;37.03;32.80;;;4.90;99.90;;;;;;5001311;28;20501;-71
2021/10/10 02:04:22;;;;;;;45.13;33.40;;;4.90;99.90;;;;;;5002045;28;20474;-73
2021/10/10 02:06:49;;;;;;;34.07;30.50;;;4.90;99.90;;;;;;5000876;28;20460;-70
2021/10/10 02:09:16;;;;;;;43.63;32.97;;;4.80;99.90;;;;;;5003255;28;20911;-70
2021/10/10 02:11:43;;;;;;;44.47;32.90;;;4.90;99.90;;;;;;5000202;28;20463;-72
2021/10/10 02:14:13;;;;;;;38.03;32.10;;;4.90;99.90;;;;;;5005089;28;20489;-70
2021/10/10 02:16:39;;;;;;;46.90;32.70;;;5.00;99.90;;;;;;4999561;28;20485;-72
2021/10/10 02:19:07;;;;;;;41.10;34.90;;;5.30;99.90;;;;;;4997170;28;20474;-73
2021/10/10 02:21:35;;;;;;;45.00;30.80;;;5.50;99.90;;;;;;5004680;28;20802;-73
2021/10/10 02:24:02;;;;;;;40.00;32.70;;;5.70;99.90;;;;;;5003638;28;21038;-73
2021/10/10 02:26:29;;;;;;;49.23;32.17;;;5.80;99.90;;;;;;5004687;28;20469;-72
2021/10/10 02:28:56;;;;;;;47.87;32.70;;;5.80;99.90;;;;;;4999977;28;20465;-72
2021/10/10 02:31:24;;;;;;;33.77;30.10;;;5.80;99.90;;;;;;5004774;28;20484;-71
2021/10/10 02:33:51;;;;;;;32.90;29.50;;;5.60;99.90;;;;;;5008130;28;20500;-71
2021/10/10 02:36:18;;;;;;;41.97;33.50;;;5.40;99.90;;;;;;5003078;28;20979;-70
2021/10/10 02:38:44;;;;;;;35.03;31.33;;;5.30;99.90;;;;;;5001112;28;20462;-71
2021/10/10 02:41:14;;;;;;;36.03;31.63;;;5.30;99.90;;;;;;5001270;28;20463;-72
2021/10/10 02:43:41;;;;;;;38.60;32.80;;;5.20;99.90;;;;;;5004956;28;20834;-71
2021/10/10 02:46:07;;;;;;;35.67;31.87;;;5.10;99.90;;;;;;5003941;28;20453;-72
2021/10/10 02:48:37;;;;;;;43.13;32.17;;;5.00;99.90;;;;;;5002816;28;20485;-72
2021/10/10 02:51:05;;;;;;;44.70;34.00;;;5.10;99.90;;;;;;4997652;28;20463;-71
2021/10/10 02:53:32;;;;;;;36.83;32.77;;;5.10;99.90;;;;;;5000968;28;20493;-71
2021/10/10 02:55:59;;;;;;;36.63;32.30;;;5.00;99.90;;;;;;4998562;28;20802;-71
2021/10/10 02:58:29;;;;;;;53.70;33.97;;;5.00;99.90;;;;;;5002686;28;20490;-69
2021/10/10 03:00:56;;;;;;;48.27;32.83;;;4.90;99.90;;;;;;5002929;28;20478;-68
2021/10/10 03:03:23;;;;;;;39.53;31.40;;;4.90;99.90;;;;;;5000740;28;20485;-70
2021/10/10 03:05:53;;;;;;;38.40;32.27;;;4.90;99.90;;;;;;5003635;28;20480;-71
2021/10/10 03:08:21;;;;;;;38.50;31.30;;;4.90;99.90;;;;;;5000238;28;20964;-68
2021/10/10 03:10:48;;;;;;;47.60;32.00;;;4.90;99.90;;;;;;5000742;28;20462;-69
2021/10/10 03:13:15;;;;;;;36.43;31.80;;;4.90;99.90;;;;;;5002859;28;20488;-70
2021/10/10 03:15:42;;;;;;;39.97;33.83;;;4.80;99.90;;;;;;4992377;28;20486;-71
2021/10/10 03:18:08;;;;;;;38.00;32.30;;;4.80;99.90;;;;;;4998538;28;20472;-70
2021/10/10 03:20:35;;;;;;;41.90;32.63;;;4.80;99.90;;;;;;4999105;28;20458;-69
2021/10/10 03:23:04;;;;;;;44.00;33.73;;;4.80;99.90;;;;;;5000626;28;20482;-69
2021/10/10 03:25:31;;;;;;;63.63;33.40;;;4.80;99.90;;;;;;4999460;28;20466;-69
2021/10/10 03:27:58;;;;;;;39.17;33.37;;;4.80;99.90;;;;;;4995498;28;20828;-69
2021/10/10 03:30:25;;;;;;;36.00;31.70;;;4.70;99.90;;;;;;5000148;28;20469;-71
2021/10/10 03:32:53;;;;;;;41.67;33.87;;;4.70;99.90;;;;;;4992493;28;20859;-70
2021/10/10 03:35:20;;;;;;;43.20;32.23;;;4.70;99.90;;;;;;5000530;28;20515;-69
2021/10/10 03:37:48;;;;;;;49.17;33.10;;;4.60;99.90;;;;;;4999555;28;20458;-69
2021/10/10 03:40:18;;;;;;;44.70;33.20;;;4.60;99.90;;;;;;5002894;28;20462;-69
2021/10/10 03:42:47;;;;;;;45.53;34.03;;;4.60;99.90;;;;;;4994062;28;20466;-69
2021/10/10 03:45:14;;;;;;;42.83;33.37;;;4.70;99.90;;;;;;4998491;28;20474;-69
2021/10/10 03:47:41;;;;;;;36.07;32.23;;;4.70;99.90;;;;;;5004697;28;20466;-69
2021/10/10 03:50:09;;;;;;;39.83;34.00;;;4.70;99.90;;;;;;4998576;28;20466;-69
2021/10/10 03:52:37;;;;;;;45.10;33.80;;;4.60;99.90;;;;;;4999250;28;20475;-69
2021/10/10 03:57:53;;;;;;;38.50;34.30;;;4.60;99.90;;;;;;4997237;28;20465;-69
2021/10/10 04:00:21;;;;;;;39.43;33.90;;;4.60;99.90;;;;;;4994443;28;20465;-69
2021/10/10 04:02:48;;;;;;;36.77;32.50;;;4.70;99.90;;;;;;5000247;28;20871;-69
2021/10/10 04:05:20;;;;;;;42.37;33.03;;;4.70;99.90;;;;;;4999782;28;20545;-69
2021/10/10 04:07:47;;;;;;;38.10;34.30;;;4.60;99.90;;;;;;4995894;28;20468;-71
2021/10/10 04:10:14;;;;;;;43.33;34.30;;;4.60;99.90;;;;;;4994242;28;20598;-71
2021/10/10 04:12:41;;;;;;;43.20;36.73;;;4.70;99.90;;;;;;4993529;28;20463;-70
2021/10/10 04:15:12;;;;;;;37.63;33.27;;;4.70;99.90;;;;;;5000809;28;20477;-69
2021/10/10 04:17:39;;;;;;;41.20;33.50;;;4.70;99.90;;;;;;4998812;28;20458;-71
2021/10/10 04:20:08;;;;;;;39.40;33.43;;;4.70;99.90;;;;;;5000311;28;20462;-71
2021/10/10 04:22:35;;;;;;;37.90;32.30;;;4.60;99.90;;;;;;5000668;28;20484;-71
2021/10/10 04:25:01;;;;;;;41.57;32.90;;;4.60;99.90;;;;;;4997718;28;20477;-70
2021/10/10 04:27:28;;;;;;;43.30;34.40;;;4.80;99.90;;;;;;4991754;28;20476;-71
2021/10/10 04:29:55;;;;;;;39.13;34.83;;;4.90;99.90;;;;;;4998632;28;20465;-70
2021/10/10 04:32:24;;;;;;;42.93;34.70;;;5.00;99.90;;;;;;5002264;28;20488;-70
2021/10/10 04:34:51;;;;;;;46.50;35.37;;;5.00;99.90;;;;;;5001401;28;20493;-69
2021/10/10 04:37:19;;;;;;;44.17;35.43;;;5.20;99.90;;;;;;4998378;28;20830;-70
2021/10/10 04:39:47;;;;;;;43.60;34.07;;;5.20;99.90;;;;;;4997073;28;20462;-69
2021/10/10 04:42:14;;;;;;;43.03;33.77;;;5.20;99.90;;;;;;5001228;28;20466;-68
2021/10/10 04:44:41;;;;;;;42.20;34.47;;;5.30;99.90;;;;;;4989722;28;21280;-70
2021/10/10 04:47:08;;;;;;;37.10;32.90;;;5.30;99.90;;;;;;4999153;28;20469;-69
2021/10/10 04:49:36;;;;;;;42.30;33.60;;;5.10;99.90;;;;;;5001444;28;20462;-71
2021/10/10 04:52:04;;;;;;;38.07;34.27;;;5.00;99.90;;;;;;4996737;28;20469;-71
2021/10/10 04:54:33;;;;;;;39.43;33.47;;;5.00;99.90;;;;;;5001942;28;20485;-69
2021/10/10 04:56:59;;;;;;;42.87;34.13;;;4.90;99.90;;;;;;5003341;28;20905;-69
2021/10/10 04:59:28;;;;;;;53.43;32.27;;;4.90;99.90;;;;;;4993677;28;20467;-70
2021/10/10 05:01:55;;;;;;;46.40;36.97;;;4.90;99.90;;;;;;4999826;28;20462;-70
2021/10/10 05:04:22;;;;;;;41.57;33.93;;;4.90;99.90;;;;;;4998590;28;20462;-71
2021/10/10 05:06:51;;;;;;;38.07;33.90;;;4.90;99.90;;;;;;5001767;28;20466;-70
2021/10/10 05:09:18;;;;;;;39.27;34.10;;;4.90;99.90;;;;;;5002147;28;20462;-71
2021/10/10 05:11:45;;;;;;;38.87;33.27;;;4.80;99.90;;;;;;5004453;28;20529;-71
2021/10/10 05:14:12;;;;;;;47.57;33.97;;;4.80;99.90;;;;;;5000692;28;20490;-70
2021/10/10 05:16:39;;;;;;;37.63;33.47;;;4.70;99.90;;;;;;4999184;28;20477;-71
2021/10/10 05:19:06;;;;;;;38.00;33.83;;;4.70;99.90;;;;;;5000998;28;20449;-69
2021/10/10 05:21:33;;;;;;;44.27;36.50;;;4.60;99.90;;;;;;5001272;28;20462;-68
2021/10/10 05:24:01;;;;;;;40.47;35.10;;;4.70;99.90;;;;;;5002054;28;20878;-69
2021/10/10 05:26:28;;;;;;;42.43;32.77;;;4.70;99.90;;;;;;5002259;28;20477;-70
2021/10/10 05:28:55;;;;;;;39.13;34.93;;;4.60;99.90;;;;;;4998276;28;20962;-71
2021/10/10 05:31:22;;;;;;;38.27;34.17;;;4.50;99.90;;;;;;5000912;28;20470;-68
2021/10/10 05:33:49;;;;;;;40.07;35.60;;;4.40;99.90;;;;;;5003544;28;20489;-69
2021/10/10 05:36:16;;;;;;;40.43;36.03;;;4.50;99.90;;;;;;5001406;28;20465;-70
2021/10/10 05:38:43;;;;;;;39.57;35.67;;;4.50;99.90;;;;;;4994885;28;20463;-69
2021/10/10 05:41:12;;;;;;;47.27;37.30;;;4.50;99.90;;;;;;5002255;28;20470;-69
2021/10/10 05:43:39;;;;;;;40.30;36.00;;;4.50;99.90;;;;;;5002249;28;20465;-69
2021/10/10 05:46:07;;;;;;;42.20;32.37;;;4.50;99.90;;;;;;5000490;28;20477;-69
2021/10/10 05:48:34;;;;;;;35.13;31.33;;;4.60;99.90;;;;;;4996987;28;20477;-68
2021/10/10 05:51:02;;;;;;;36.73;32.70;;;4.50;99.90;;;;;;4997908;28;20466;-69
2021/10/10 05:53:29;;;;;;;39.27;31.60;;;4.50;99.90;;;;;;4998714;28;20470;-70
2021/10/10 05:55:59;;;;;;;34.67;30.53;;;4.40;99.90;;;;;;5001365;28;20493;-69
2021/10/10 05:58:31;;;;;;;34.63;30.40;;;4.40;99.90;;;;;;5001737;28;20489;-70
2021/10/10 06:00:58;;;;;;;37.37;33.37;;;4.30;99.90;;;;;;4996655;28;20553;-69
2021/10/10 06:03:26;;;;;;;45.83;34.73;;;4.40;99.90;;;;;;5004901;28;20470;-69
2021/10/10 06:05:53;;;;;;;38.77;32.40;;;4.40;99.90;;;;;;5001717;28;20462;-69
2021/10/10 06:08:21;;;;;;;37.17;33.37;;;4.50;99.90;;;;;;4996765;28;20470;-69
2021/10/10 06:10:48;;;;;;;38.03;33.97;;;4.60;99.90;;;;;;5000674;28;20466;-69
2021/10/10 06:13:15;;;;;;;42.57;34.87;;;4.70;99.90;;;;;;5004149;28;20532;-69
2021/10/10 06:15:46;;;;;;;38.73;34.30;;;4.90;99.90;;;;;;5005200;28;20489;-69
2021/10/10 06:18:13;;;;;;;40.17;33.10;;;5.00;99.90;;;;;;5001665;28;20467;-69
2021/10/10 06:20:40;;;;;;;34.27;30.57;;;5.10;99.90;;;;;;5005414;28;20467;-69
2021/10/10 06:23:07;;;;;;;40.43;34.90;;;5.10;99.90;;;;;;5004103;28;20785;-69
2021/10/10 06:25:34;;;;;;;43.23;36.07;;;5.10;99.90;;;;;;5006498;28;20469;-69
2021/10/10 06:28:01;;;;;;;38.47;33.17;;;5.20;99.90;;;;;;5000680;28;20874;-69
2021/10/10 06:30:28;;;;;;;40.63;34.37;;;5.30;99.90;;;;;;5003277;28;20462;-69
2021/10/10 06:32:57;;;;;;;38.23;32.60;;;5.40;99.90;;;;;;4997378;28;20716;-70
2021/10/10 06:35:24;;;;;;;40.17;32.67;;;5.50;99.90;;;;;;5001656;28;20498;-70
2021/10/10 06:37:51;;;;;;;38.03;32.27;;;5.60;99.90;;;;;;5005559;28;20462;-69
2021/10/10 06:40:18;;;;;;;40.03;32.60;;;5.70;99.90;;;;;;4998464;28;20489;-69
2021/10/10 06:42:45;;;;;;;38.17;33.20;;;5.80;99.90;;;;;;4995544;28;20466;-69
2021/10/10 06:45:12;;;;;;;41.50;33.63;;;5.90;99.90;;;;;;4997384;28;20490;-69
2021/10/10 06:47:40;;;;;;;33.37;29.77;;;5.90;99.90;;;;;;4990008;28;20543;-69
2021/10/10 06:50:08;;;;;;;41.10;33.70;;;6.00;99.90;;;;;;4992795;28;20466;-69
2021/10/10 06:52:36;;;;;;;39.37;34.40;;;6.00;99.90;;;;;;4993696;28;20481;-71
2021/10/10 06:55:03;;;;;;;43.97;33.67;;;6.10;99.90;;;;;;4995608;28;20489;-70
2021/10/10 06:57:33;;;;;;;41.40;36.40;;;6.20;99.90;;;;;;4994960;28;20486;-71
2021/10/10 07:00:00;;;;;;;48.40;33.87;;;6.30;99.90;;;;;;4997823;28;20564;-71
2021/10/10 07:02:28;;;;;;;50.37;33.20;;;6.50;99.90;;;;;;5005829;28;20455;-71
2021/10/10 07:04:55;;;;;;;44.63;34.73;;;6.50;99.90;;;;;;4994773;28;20949;-70
2021/10/10 07:07:24;;;;;;;46.03;37.03;;;6.60;99.90;;;;;;4995566;28;20519;-69
2021/10/10 07:09:52;;;;;;;39.30;35.17;;;6.70;99.90;;;;;;4997807;28;20467;-69
2021/10/10 07:12:19;;;;;;;36.17;32.30;;;6.80;99.90;;;;;;4996759;28;20492;-69
2021/10/10 07:14:50;;;;;;;39.70;35.60;;;6.80;99.90;;;;;;4996335;28;20491;-69
2021/10/10 07:17:17;;;;;;;37.10;33.07;;;6.90;99.90;;;;;;5002471;28;20569;-69
2021/10/10 07:19:48;;;;;;;37.10;33.33;;;7.00;99.90;;;;;;4991776;28;20528;-70
2021/10/10 07:22:27;;;;;;;39.20;35.20;;;7.10;99.90;;;;;;4999445;28;20826;-69
2021/10/10 07:25:04;;;;;;;41.83;34.50;;;7.10;99.90;;;;;;4995354;28;20825;-70
2021/10/10 07:27:33;;;;;;;41.50;35.20;;;7.20;99.90;;;;;;4993927;28;20532;-69
2021/10/10 07:30:01;;;;;;;39.73;33.00;;;7.20;99.90;;;;;;4996937;28;20802;-69
2021/10/10 07:32:28;;;;;;;41.30;35.20;;;7.30;99.90;;;;;;4997929;28;21078;-69
2021/10/10 07:34:56;;;;;;;50.53;35.97;;;7.40;99.90;;;;;;5000843;28;21016;-69
2021/10/10 07:37:23;;;;;;;43.00;34.83;;;7.50;99.90;;;;;;5001176;28;20982;-69
2021/10/10 07:39:49;;;;;;;41.90;35.67;;;7.50;99.90;;;;;;4994760;28;20833;-69
2021/10/10 07:42:18;;;;;;;41.47;35.87;;;7.60;99.90;;;;;;4996007;28;20492;-70
2021/10/10 07:44:47;;;;;;;41.73;37.30;;;7.80;99.90;;;;;;4994116;28;20462;-71
2021/10/10 07:47:28;;;;;;;42.83;36.63;;;7.80;99.90;;;;;;4994610;28;20524;-69
2021/10/10 07:49:56;;;;;;;41.03;34.37;;;7.90;99.90;;;;;;4996592;28;20466;-69
2021/10/10 07:52:24;;;;;;;42.63;34.40;;;8.00;99.90;;;;;;5001277;28;20538;-69
2021/10/10 07:54:51;;;;;;;43.97;35.73;;;8.00;99.90;;;;;;4997309;28;20459;-70
2021/10/10 07:57:19;;;;;;;40.10;35.80;;;8.10;99.90;;;;;;4995243;28;22071;-70
2021/10/10 07:59:46;;;;;;;44.00;37.50;;;8.10;99.90;;;;;;4975846;28;21082;-72
2021/10/10 08:02:13;;;;;;;42.20;37.70;;;8.10;99.90;;;;;;4993121;28;20947;-69
2021/10/10 08:04:41;;;;;;;40.83;36.30;;;8.20;99.90;;;;;;4992187;28;20511;-72
2021/10/10 08:07:07;;;;;;;37.70;32.10;;;8.30;99.90;;;;;;4992058;28;20490;-69
2021/10/10 08:09:34;;;;;;;39.00;35.07;;;8.30;99.90;;;;;;4993665;28;21003;-69
2021/10/10 08:12:02;;;;;;;40.23;35.97;;;8.40;99.90;;;;;;4998391;28;20477;-70
2021/10/10 08:14:31;;;;;;;41.93;35.43;;;8.50;99.90;;;;;;4998538;28;20567;-69
2021/10/10 08:16:58;;;;;;;43.43;36.37;;;8.60;99.90;;;;;;4993519;28;20505;-69
2021/10/10 08:19:25;;;;;;;43.03;36.23;;;8.70;99.90;;;;;;4988868;28;20479;-71
2021/10/10 08:21:52;;;;;;;42.90;34.57;;;8.80;99.90;;;;;;4991919;28;20465;-70
2021/10/10 08:24:21;;;;;;;43.77;35.80;;;8.90;99.90;;;;;;4992678;28;20492;-69
2021/10/10 08:26:48;;;;;;;38.67;34.87;;;9.10;99.90;;;;;;4997804;28;20472;-69
2021/10/10 08:29:16;;;;;;;40.40;36.10;;;9.30;99.90;;;;;;4997672;28;20479;-69
2021/10/10 08:31:44;;;;;;;38.83;34.53;;;9.40;99.90;;;;;;4988825;28;20471;-71
2021/10/10 08:34:11;;;;;;;38.80;34.70;;;9.50;99.90;;;;;;4990536;28;20854;-70
2021/10/10 08:36:38;;;;;;;45.53;38.10;;;9.60;99.90;;;;;;4992637;28;21170;-69
2021/10/10 08:39:05;;;;;;;48.47;36.93;;;9.70;99.90;;;;;;4992782;28;21520;-70
2021/10/10 08:41:36;;;;;;;43.73;37.17;;;9.70;99.90;;;;;;4997208;28;20471;-70
2021/10/10 08:44:03;;;;;;;40.37;34.80;;;9.80;99.90;;;;;;4988651;28;20470;-70
2021/10/10 08:46:33;;;;;;;39.03;35.13;;;10.00;99.90;;;;;;4988290;28;20986;-69
2021/10/10 08:49:04;;;;;;;40.77;36.47;;;10.10;99.90;;;;;;4993980;28;20800;-69
2021/10/10 08:51:35;;;;;;;41.67;36.27;;;10.20;99.90;;;;;;4995628;28;20465;-69
2021/10/10 08:54:02;;;;;;;39.60;35.40;;;10.30;99.90;;;;;;4988752;28;20468;-69
2021/10/10 08:56:30;;;;;;;42.17;35.87;;;10.40;99.90;;;;;;4996608;28;20499;-69
2021/10/10 08:58:57;;;;;;;39.30;35.20;;;10.60;99.90;;;;;;4989637;28;20473;-69
2021/10/10 09:01:29;;;;;;;45.53;37.10;;;10.60;99.90;;;;;;4986795;28;20473;-71
2021/10/10 09:03:57;;;;;;;46.30;39.10;;;10.60;99.90;;;;;;4988857;28;20949;-69
2021/10/10 09:06:26;;;;;;;40.97;36.63;;;10.70;99.90;;;;;;4998199;28;20463;-69
2021/10/10 09:08:54;;;;;;;42.57;36.50;;;10.90;99.90;;;;;;4998822;28;20827;-69
2021/10/10 09:11:21;;;;;;;42.57;38.10;;;11.20;99.90;;;;;;4990829;28;20466;-69
2021/10/10 09:13:52;;;;;;;42.70;36.10;;;11.20;99.90;;;;;;4988557;28;20467;-69
2021/10/10 09:16:35;;;;;;;42.30;34.67;;;11.40;99.90;;;;;;4994426;28;21069;-69
2021/10/10 09:19:28;;;;;;;47.10;34.77;;;11.60;99.90;;;;;;4997172;28;20485;-71
2021/10/10 09:22:06;;;;;;;41.43;36.23;;;11.60;99.90;;;;;;4994528;28;20517;-70
2021/10/10 09:24:33;;;;;;;38.40;34.30;;;11.90;99.90;;;;;;5001736;28;20461;-69
2021/10/10 09:27:04;;;;;;;40.77;36.07;;;12.10;99.90;;;;;;5005508;28;20904;-70
2021/10/10 09:29:35;;;;;;;37.73;33.83;;;12.30;99.90;;;;;;4992352;28;20469;-69
2021/10/10 09:32:11;;;;;;;38.20;33.90;;;12.40;99.90;;;;;;4997110;28;20472;-70
2021/10/10 09:34:40;;;;;;;37.33;33.43;;;12.50;99.90;;;;;;4994320;28;20486;-72
2021/10/10 09:37:18;;;;;;;38.60;34.00;;;12.90;99.90;;;;;;4995336;28;20893;-69
2021/10/10 09:39:49;;;;;;;37.23;33.13;;;12.90;99.90;;;;;;5001618;28;20972;-69
2021/10/10 09:42:34;;;;;;;39.63;34.93;;;13.00;99.90;;;;;;4996780;28;20471;-69
2021/10/10 09:45:14;;;;;;;35.13;31.53;;;13.40;99.90;;;;;;4997633;28;20461;-70
2021/10/10 09:47:53;;;;;;;34.07;30.70;;;13.50;99.90;;;;;;4988628;28;21038;-69
2021/10/10 09:50:21;;;;;;;33.73;30.20;;;13.70;99.90;;;;;;5000689;28;20463;-70
2021/10/10 09:53:00;;;;;;;31.63;28.80;;;14.10;99.90;;;;;;4995689;28;20964;-70
2021/10/10 09:55:29;;;;;;;31.60;28.33;;;14.60;99.90;;;;;;4999410;28;20469;-69
2021/10/10 09:57:56;;;;;;;37.57;28.03;;;15.20;99.90;;;;;;4993645;28;20704;-71
2021/10/10 10:00:24;;;;;;;29.27;26.63;;;15.90;99.90;;;;;;5000511;28;20493;-70
2021/10/10 10:02:51;;;;;;;29.60;26.50;;;16.40;99.90;;;;;;4998874;28;21031;-70
2021/10/10 10:05:26;;;;;;;29.07;26.47;;;16.40;99.90;;;;;;4999641;28;20978;-71
2021/10/10 10:07:56;;;;;;;29.60;27.00;;;16.60;99.90;;;;;;4995560;28;20461;-70
2021/10/10 10:10:25;;;;;;;27.80;25.20;;;16.70;99.90;;;;;;4994090;28;20493;-70
2021/10/10 10:12:53;;;;;;;29.17;26.43;;;17.10;99.90;;;;;;4993339;28;21018;-71
2021/10/10 10:15:20;;;;;;;27.20;24.70;;;17.80;99.90;;;;;;4988626;28;20984;-70
2021/10/10 10:17:48;;;;;;;27.57;25.00;;;18.40;99.90;;;;;;4993148;28;20519;-71
2021/10/10 10:20:17;;;;;;;26.67;24.30;;;18.80;99.90;;;;;;4996199;28;20557;-70
2021/10/10 10:22:45;;;;;;;28.33;25.43;;;18.90;99.90;;;;;;4994877;28;20813;-70
2021/10/10 10:25:14;;;;;;;26.33;24.03;;;19.20;99.90;;;;;;4991809;28;20466;-70
2021/10/10 10:27:40;;;;;;;25.90;23.43;;;18.80;99.90;;;;;;4993062;28;20454;-70
2021/10/10 10:30:08;;;;;;;26.47;24.07;;;18.70;99.90;;;;;;4997809;28;20469;-70
2021/10/10 10:32:36;;;;;;;29.20;23.73;;;19.10;99.90;;;;;;4986341;28;20498;-70
2021/10/10 10:35:08;;;;;;;28.13;24.70;;;19.40;99.90;;;;;;4985839;28;20462;-70
2021/10/10 10:37:49;;;;;;;29.67;26.67;;;19.10;99.90;;;;;;4990648;28;20498;-70
2021/10/10 10:40:39;;;;;;;29.77;26.73;;;18.70;99.90;;;;;;4991108;28;20462;-70
2021/10/10 10:43:07;;;;;;;31.63;27.77;;;18.70;99.90;;;;;;4988863;28;20532;-72
2021/10/10 10:45:39;;;;;;;32.83;29.33;;;18.70;99.90;;;;;;4990795;28;20906;-73
2021/10/10 10:48:08;;;;;;;31.57;28.20;;;18.30;99.90;;;;;;4984706;28;20880;-70
2021/10/10 10:50:39;;;;;;;31.70;28.60;;;18.60;99.90;;;;;;4989390;28;20470;-70
2021/10/10 10:53:07;;;;;;;35.40;31.30;;;19.10;99.90;;;;;;4987862;28;20467;-71
2021/10/10 15:00:20;;;;;;;30.17;27.40;;;23.20;98.60;;;;;;5139893;27;20569;-70
2021/10/10 15:02:48;;;;;;;31.00;27.77;;;23.90;97.40;;;;;;5132581;27;20535;-68
2021/10/10 15:05:15;;;;;;;31.03;27.90;;;24.00;97.40;;;;;;5139987;27;20862;-67
2021/10/10 15:07:44;;;;;;;29.43;26.83;;;23.50;96.80;;;;;;5133374;27;20468;-67
2021/10/10 15:10:12;;;;;;;30.80;28.00;;;23.10;98.40;;;;;;5131252;27;20468;-68
2021/10/10 15:12:39;;;;;;;32.70;28.30;;;22.30;99.10;;;;;;5134537;27;20460;-70
2021/10/10 15:15:09;;;;;;;32.83;29.70;;;22.10;99.00;;;;;;5131753;27;20452;-70
2021/10/10 15:17:39;;;;;;;32.90;29.50;;;21.60;99.90;;;;;;5135199;27;20463;-68
2021/10/10 15:20:07;;;;;;;30.90;27.30;;;21.50;99.90;;;;;;5130632;27;20460;-67
2021/10/10 15:22:35;;;;;;;31.07;27.90;;;21.50;99.90;;;;;;5134615;27;20831;-67
2021/10/10 15:25:03;;;;;;;33.83;30.73;;;21.60;99.90;;;;;;5132849;27;20824;-67
2021/10/10 15:27:33;;;;;;;37.97;33.33;;;21.50;99.90;;;;;;5132179;27;20474;-66
2021/10/10 15:30:00;;;;;;;38.97;34.67;;;21.20;99.90;;;;;;5138614;27;20451;-67
2021/10/10 15:32:27;;;;;;;43.13;36.13;;;21.00;99.90;;;;;;5129377;27;20452;-72
2021/10/10 15:34:57;;;;;;;40.80;36.27;;;21.20;99.90;;;;;;5134371;27;20460;-69
2021/10/10 15:37:24;;;;;;;41.17;36.70;;;21.20;99.90;;;;;;5134995;27;20529;-70
2021/10/10 15:39:51;;;;;;;44.70;39.83;;;21.00;99.90;;;;;;5135138;27;20488;-67
2021/10/10 15:42:18;;;;;;;47.53;41.70;;;20.90;99.90;;;;;;5132389;27;20819;-67
2021/10/10 15:44:46;;;;;;;46.67;41.03;;;20.50;99.90;;;;;;5132174;27;20483;-69
2021/10/10 15:47:14;;;;;;;54.73;43.83;;;20.30;99.90;;;;;;5135767;27;20464;-67
2021/10/10 15:49:41;;;;;;;57.77;43.90;;;19.80;99.90;;;;;;5134713;27;20479;-65
2021/10/10 15:52:09;;;;;;;59.37;44.80;;;19.40;99.90;;;;;;5135983;27;20471;-67
2021/10/10 15:54:36;;;;;;;52.20;46.47;;;18.60;99.90;;;;;;5138412;27;20919;-67
2021/10/10 15:57:03;;;;;;;57.33;46.77;;;17.90;99.90;;;;;;5132055;27;20458;-67
2021/10/10 15:59:31;;;;;;;50.87;44.27;;;17.70;99.90;;;;;;5132958;27;20823;-70
2021/10/10 16:01:59;;;;;;;60.10;46.40;;;17.40;99.90;;;;;;5122559;27;20471;-67
2021/10/10 16:04:26;;;;;;;56.83;46.37;;;17.00;99.90;;;;;;5119442;27;20456;-67
2021/10/10 16:06:53;;;;;;;56.20;46.20;;;16.70;99.90;;;;;;5122635;27;20466;-70
2021/10/10 16:09:22;;;;;;;58.67;49.87;;;16.40;99.90;;;;;;5114394;27;20463;-68
2021/10/10 16:11:49;;;;;;;64.80;48.50;;;16.20;99.90;;;;;;5118242;27;20976;-67
2021/10/10 16:14:16;;;;;;;58.67;47.63;;;16.20;99.90;;;;;;5120482;27;20783;-67
2021/10/10 16:16:43;;;;;;;60.37;50.07;;;16.00;99.90;;;;;;5118684;27;20453;-69
2021/10/10 16:19:10;;;;;;;69.53;49.87;;;15.90;99.90;;;;;;5107768;27;20586;-68
2021/10/10 16:21:38;;;;;;;59.20;48.63;;;15.80;99.90;;;;;;5119965;27;20457;-68
2021/10/10 16:24:06;;;;;;;57.70;46.57;;;15.70;99.90;;;;;;5110988;27;20499;-68
2021/10/10 16:26:35;;;;;;;62.70;51.90;;;15.60;99.90;;;;;;5122112;27;20547;-69
2021/10/10 16:29:03;;;;;;;62.30;49.77;;;15.50;99.90;;;;;;5116734;27;20462;-68
2021/10/10 16:31:32;;;;;;;62.03;49.40;;;15.40;99.90;;;;;;5115485;27;20466;-67
2021/10/10 16:34:08;;;;;;;63.40;51.87;;;15.20;99.90;;;;;;5109132;27;20484;-67
2021/10/10 16:36:38;;;;;;;62.40;50.17;;;15.00;99.90;;;;;;5111067;27;20481;-66
2021/10/10 16:39:08;;;;;;;68.07;51.77;;;14.90;99.90;;;;;;5116415;27;20496;-66
2021/10/10 16:41:59;;;;;;;65.17;51.50;;;14.80;99.90;;;;;;5118142;27;20469;-70
2021/10/10 16:44:27;;;;;;;64.83;50.50;;;14.60;99.90;;;;;;5119271;27;20969;-69
2021/10/10 16:46:55;;;;;;;60.03;50.97;;;14.40;99.90;;;;;;5119584;27;20467;-66